Time;durP1;ratioP1;P1;durP2;ratioP2;P2;SDS_P1;SDS_P2;PMS_P1;PMS_P2;Temp;Humidity;BMP_temperature;BMP_pressure;BME280_temperature;BME280_humidity;BME280_pressure;Samples;Min_cycle;Max_cycle;Signal;HPM_P1;HPM_P2
2022/05/02 00:00:14;;;;;;;4.18;1.67;;;;;;;14.58;100.00;101497.38;5066177;28;20405;-82
2022/05/02 00:02:41;;;;;;;5.25;2.00;;;;;;;14.71;100.00;101518.81;5060629;28;20053;-82
2022/05/02 00:05:08;;;;;;;4.57;1.85;;;;;;;14.81;100.00;101506.94;5063835;28;20400;-82
2022/05/02 00:07:36;;;;;;;6.65;1.70;;;;;;;14.71;100.00;101508.25;5061789;28;20049;-82
2022/05/02 00:10:04;;;;;;;3.75;1.48;;;;;;;14.85;100.00;101518.22;5061685;28;20059;-82
2022/05/02 00:12:31;;;;;;;4.57;1.67;;;;;;;14.71;100.00;101516.16;5064652;28;20522;-82
2022/05/02 00:14:58;;;;;;;4.30;1.75;;;;;;;14.87;100.00;101523.44;5061614;28;20471;-82
2022/05/02 00:20:11;;;;;;;6.88;2.70;;;;;;;14.63;100.00;101504.28;5060860;28;20048;-82
2022/05/02 00:22:37;;;;;;;7.63;3.28;;;;;;;14.48;100.00;101518.88;5061200;28;20086;-82
2022/05/02 00:25:05;;;;;;;7.13;3.05;;;;;;;14.65;100.00;101513.81;5060566;28;20051;-82
2022/05/02 00:27:32;;;;;;;9.15;4.28;;;;;;;14.42;100.00;101517.38;5063115;28;20055;-82
2022/05/02 00:29:59;;;;;;;10.65;5.10;;;;;;;14.30;100.00;101507.34;5057389;28;20056;-82
2022/05/02 00:32:26;;;;;;;9.70;4.60;;;;;;;14.34;100.00;101504.53;5092201;28;20053;-82
2022/05/02 00:34:53;;;;;;;10.50;4.47;;;;;;;14.33;100.00;101500.16;5063577;28;20585;-82
2022/05/02 00:37:20;;;;;;;9.65;3.90;;;;;;;14.70;100.00;101511.84;5067009;28;20037;-82
2022/05/02 00:39:47;;;;;;;9.25;4.30;;;;;;;14.57;100.00;101503.56;5061630;28;20044;-82
2022/05/02 00:42:14;;;;;;;9.90;4.65;;;;;;;14.38;100.00;101507.88;5060563;28;20443;-82
2022/05/02 00:44:44;;;;;;;9.10;4.68;;;;;;;14.19;100.00;101513.88;5065749;28;20048;-82
2022/05/02 00:47:15;;;;;;;9.32;4.57;;;;;;;14.07;100.00;101514.38;5065437;28;20044;-82
2022/05/02 00:49:43;;;;;;;9.57;4.38;;;;;;;14.23;100.00;101520.75;5059910;28;20478;-82
2022/05/02 00:52:10;;;;;;;9.40;4.40;;;;;;;14.10;100.00;101506.38;5091927;28;20048;-82
2022/05/02 00:54:37;;;;;;;9.18;4.45;;;;;;;14.23;100.00;101515.47;5067946;28;20098;-82
2022/05/02 00:57:07;;;;;;;10.20;5.03;;;;;;;13.98;100.00;101512.97;5069566;28;20047;-82
2022/05/02 00:59:38;;;;;;;10.65;4.85;;;;;;;13.89;100.00;101515.97;5071222;28;20135;-82
2022/05/02 01:02:07;;;;;;;10.55;5.18;;;;;;;13.85;100.00;101523.13;5070697;28;20048;-82
2022/05/02 01:04:35;;;;;;;11.43;5.82;;;;;;;13.84;100.00;101516.13;5070279;28;20059;-82
2022/05/02 01:07:09;;;;;;;13.32;7.45;;;;;;;13.59;100.00;101529.38;5050667;28;20380;-82
2022/05/02 01:09:38;;;;;;;13.10;7.47;;;;;;;13.47;100.00;101532.47;5067539;28;20123;-82
2022/05/02 01:12:11;;;;;;;16.85;8.27;;;;;;;13.44;100.00;101522.94;5069988;28;20053;-82
2022/05/02 01:14:38;;;;;;;18.48;10.32;;;;;;;13.19;100.00;101543.09;5070008;28;20060;-82
2022/05/02 01:17:05;;;;;;;15.38;9.55;;;;;;;13.47;100.00;101528.09;5072108;28;20047;-82
2022/05/02 01:19:34;;;;;;;20.50;11.20;;;;;;;13.09;100.00;101527.66;5070068;28;20052;-82
2022/05/02 01:22:03;;;;;;;16.20;9.27;;;;;;;13.29;100.00;101544.50;5069884;28;20057;-82
2022/05/02 01:24:40;;;;;;;19.48;10.90;;;;;;;13.35;100.00;101543.44;5071581;28;20052;-82
2022/05/02 01:27:08;;;;;;;19.98;11.20;;;;;;;13.14;100.00;101551.16;5070372;28;20048;-82
2022/05/02 01:29:36;;;;;;;20.67;10.50;;;;;;;13.04;100.00;101553.25;5069473;28;20056;-82
2022/05/02 01:32:09;;;;;;;20.35;11.05;;;;;;;13.15;100.00;101538.88;5069695;28;20056;-82
2022/05/02 01:34:40;;;;;;;19.10;10.00;;;;;;;12.84;100.00;101539.94;5070369;28;20509;-82
2022/05/02 01:37:12;;;;;;;15.32;8.45;;;;;;;13.03;100.00;101541.03;5070279;28;20090;-81
2022/05/02 01:39:39;;;;;;;17.30;9.82;;;;;;;12.81;100.00;101542.69;5069757;28;20087;-81
2022/05/02 01:42:08;;;;;;;17.25;9.25;;;;;;;13.03;100.00;101542.78;5069999;28;20052;-82
2022/05/02 01:44:36;;;;;;;18.52;10.38;;;;;;;13.05;100.00;101554.09;5069858;28;20056;-82
2022/05/02 01:47:04;;;;;;;14.48;8.02;;;;;;;13.28;100.00;101561.19;5070062;28;20044;-82
2022/05/02 01:49:31;;;;;;;15.48;8.00;;;;;;;12.99;100.00;101547.28;5063918;28;20057;-82
2022/05/02 01:51:58;;;;;;;14.52;7.43;;;;;;;12.63;100.00;101558.16;5069209;28;20604;-82
2022/05/02 01:54:26;;;;;;;14.80;6.80;;;;;;;12.40;100.00;101558.03;5069431;28;20063;-82
2022/05/02 01:56:55;;;;;;;10.75;5.57;;;;;;;12.38;100.00;101544.97;5069847;28;20040;-82
2022/05/02 01:59:23;;;;;;;12.52;4.85;;;;;;;12.77;100.00;101555.06;5069685;28;20045;-82
2022/05/02 02:01:50;;;;;;;12.95;5.93;;;;;;;12.70;100.00;101564.91;5071188;28;20474;-82
2022/05/02 02:07:03;;;;;;;10.65;4.95;;;;;;;12.48;100.00;101574.41;5070668;28;20143;-82
2022/05/02 02:09:29;;;;;;;12.57;4.70;;;;;;;12.18;100.00;101574.44;5073086;28;20048;-82
2022/05/02 02:11:57;;;;;;;9.68;4.15;;;;;;;12.11;100.00;101571.19;5073414;28;20049;-82
2022/05/02 02:14:25;;;;;;;9.77;3.80;;;;;;;12.37;100.00;101574.75;5072740;28;20049;-82
2022/05/02 02:16:52;;;;;;;8.93;3.63;;;;;;;12.30;100.00;101574.06;5069730;28;20052;-83
2022/05/02 02:19:19;;;;;;;12.77;4.35;;;;;;;12.39;100.00;101575.53;5072849;28;20113;-83
2022/05/02 02:21:46;;;;;;;8.65;3.88;;;;;;;12.11;100.00;101589.56;5072431;28;20059;-82
2022/05/02 02:24:13;;;;;;;9.52;3.85;;;;;;;11.89;100.00;101596.31;5072786;28;20044;-82
2022/05/02 02:26:39;;;;;;;9.45;3.30;;;;;;;12.28;100.00;101585.53;5067899;28;20041;-82
2022/05/02 02:29:07;;;;;;;9.95;3.35;;;;;;;12.23;100.00;101580.41;5072587;28;20045;-82
2022/05/02 02:31:34;;;;;;;8.07;3.58;;;;;;;12.18;100.00;101587.56;5072698;28;20524;-82
2022/05/02 02:34:01;;;;;;;11.38;3.83;;;;;;;12.12;100.00;101600.91;5072898;28;20060;-82
2022/05/02 02:36:27;;;;;;;8.65;3.40;;;;;;;12.26;100.00;101580.34;5073400;28;20140;-82
2022/05/02 02:38:54;;;;;;;10.77;4.50;;;;;;;12.11;100.00;101600.06;5072638;28;20044;-82
2022/05/02 02:41:21;;;;;;;9.55;3.65;;;;;;;12.05;100.00;101588.88;5072132;28;20059;-82
2022/05/02 02:43:48;;;;;;;6.97;2.83;;;;;;;12.08;100.00;101583.53;5073887;28;20044;-82
2022/05/02 02:46:14;;;;;;;9.75;3.38;;;;;;;12.45;100.00;101596.38;5072580;28;20045;-82
2022/05/02 02:48:41;;;;;;;9.32;2.90;;;;;;;12.67;100.00;101595.69;5066200;28;20059;-82
2022/05/02 02:51:08;;;;;;;7.85;3.05;;;;;;;12.78;100.00;101598.81;5071718;28;20515;-83
2022/05/02 02:53:35;;;;;;;10.85;3.55;;;;;;;12.48;100.00;101598.03;5073861;28;20592;-82
2022/05/02 02:56:02;;;;;;;8.45;3.25;;;;;;;12.69;100.00;101605.22;5073052;28;20114;-82
2022/05/02 02:58:28;;;;;;;7.65;3.13;;;;;;;12.54;100.00;101608.38;5072548;28;20060;-81
2022/05/02 03:00:55;;;;;;;9.68;3.22;;;;;;;12.68;100.00;101603.53;5070827;28;20437;-82
2022/05/02 03:03:22;;;;;;;8.73;3.55;;;;;;;12.43;100.00;101606.09;5072873;28;20048;-80
2022/05/02 03:06:04;;;;;;;10.30;3.63;;;;;;;12.34;100.00;101593.22;5071925;28;20052;-81
2022/05/02 03:08:40;;;;;;;9.18;3.78;;;;;;;12.60;100.00;101615.19;5071900;28;20056;-80
2022/05/02 03:11:07;;;;;;;11.10;3.78;;;;;;;12.13;100.00;101613.13;5071239;28;20056;-80
2022/05/02 03:13:36;;;;;;;9.43;4.05;;;;;;;12.14;100.00;101620.09;5071895;28;20044;-81
2022/05/02 03:16:04;;;;;;;11.18;4.15;;;;;;;11.91;100.00;101611.13;5072809;28;20478;-80
2022/05/02 03:18:31;;;;;;;9.00;3.60;;;;;;;12.23;100.00;101609.31;5065191;28;20143;-81
2022/05/02 03:20:58;;;;;;;8.13;3.45;;;;;;;12.53;100.00;101601.38;5069958;28;20044;-80
2022/05/02 03:23:25;;;;;;;8.63;3.47;;;;;;;12.33;100.00;101602.00;5073092;28;20044;-80
2022/05/02 03:25:52;;;;;;;13.00;3.90;;;;;;;12.28;100.00;101590.78;5071854;28;20136;-82
2022/05/02 03:28:19;;;;;;;9.88;3.80;;;;;;;12.23;100.00;101603.19;5071607;28;20047;-82
2022/05/02 03:30:46;;;;;;;9.75;3.55;;;;;;;12.33;100.00;101599.38;5071620;28;20048;-81
2022/05/02 03:33:12;;;;;;;8.18;3.45;;;;;;;12.03;100.00;101595.94;5072152;28;20135;-81
2022/05/02 03:35:39;;;;;;;10.65;3.58;;;;;;;11.63;100.00;101607.53;5071462;28;20057;-82
2022/05/02 03:38:06;;;;;;;9.27;3.30;;;;;;;11.98;100.00;101601.31;5072296;28;20049;-81
2022/05/02 03:40:33;;;;;;;12.93;3.75;;;;;;;11.96;100.00;101603.97;5071142;28;20509;-81
2022/05/02 03:42:59;;;;;;;12.73;3.80;;;;;;;11.97;100.00;101610.09;5072588;28;20052;-82
2022/05/02 03:45:27;;;;;;;9.45;3.70;;;;;;;12.19;100.00;101604.22;5070889;28;20048;-82
2022/05/02 03:47:53;;;;;;;9.40;3.30;;;;;;;12.40;100.00;101615.81;5066169;28;20055;-82
2022/05/02 03:50:20;;;;;;;10.63;3.63;;;;;;;12.19;100.00;101607.69;5070399;28;20566;-82
2022/05/02 03:52:53;;;;;;;8.35;3.17;;;;;;;12.04;100.00;101571.38;5055526;28;20066;-82
2022/05/02 03:55:19;;;;;;;8.98;3.35;;;;;;;12.53;100.00;101612.72;5072658;28;20059;-82
2022/05/02 03:57:46;;;;;;;8.15;3.35;;;;;;;12.46;100.00;101608.59;5071055;28;20044;-82
2022/05/02 04:00:13;;;;;;;8.70;3.00;;;;;;;12.65;100.00;101606.25;5070627;28;20054;-82
2022/05/02 04:02:41;;;;;;;7.82;2.80;;;;;;;12.52;100.00;101590.03;5071602;28;20052;-82
2022/05/02 04:05:09;;;;;;;10.80;3.92;;;;;;;12.20;100.00;101616.41;5071224;28;20079;-82
2022/05/02 04:07:36;;;;;;;11.48;4.03;;;;;;;12.25;100.00;101620.66;5071668;28;20132;-82
2022/05/02 04:10:04;;;;;;;9.10;3.25;;;;;;;12.12;100.00;101599.13;5070524;28;20052;-82
2022/05/02 04:12:39;;;;;;;11.20;3.55;;;;;;;12.16;100.00;101586.78;5070912;28;20052;-82
2022/05/02 04:15:07;;;;;;;10.90;3.67;;;;;;;11.99;100.00;101592.56;5070134;28;20139;-82
2022/05/02 04:17:34;;;;;;;9.32;4.00;;;;;;;11.83;100.00;101620.97;5068612;28;20048;-82
2022/05/02 04:20:02;;;;;;;8.90;3.42;;;;;;;11.86;100.00;101602.50;5068698;28;20052;-82
2022/05/02 04:22:29;;;;;;;11.43;3.88;;;;;;;11.67;100.00;101619.66;5067113;28;20053;-82
2022/05/02 04:24:55;;;;;;;10.77;3.45;;;;;;;12.04;100.00;101610.75;5070467;28;20131;-82
2022/05/02 04:27:22;;;;;;;10.20;3.78;;;;;;;12.13;100.00;101592.13;5070137;28;20051;-82
2022/05/02 04:29:49;;;;;;;9.32;3.55;;;;;;;12.40;100.00;101627.19;5070534;28;20058;-82
2022/05/02 04:32:16;;;;;;;10.23;4.45;;;;;;;12.04;100.00;101630.03;5070261;28;20060;-82
2022/05/02 04:34:43;;;;;;;8.95;3.13;;;;;;;12.30;100.00;101626.59;5071623;28;20055;-82
2022/05/02 04:37:10;;;;;;;10.40;3.55;;;;;;;12.17;100.00;101613.91;5072489;28;20460;-81
2022/05/02 04:39:37;;;;;;;10.05;3.13;;;;;;;12.44;100.00;101631.41;5071568;28;20046;-82
2022/05/02 04:42:04;;;;;;;8.57;3.03;;;;;;;12.41;100.00;101634.16;5071270;28;20762;-82
2022/05/02 04:44:32;;;;;;;9.57;3.15;;;;;;;12.27;100.00;101631.97;5070704;28;20060;-82
2022/05/02 04:46:59;;;;;;;9.32;3.53;;;;;;;12.27;100.00;101624.06;5070445;28;20386;-82
2022/05/02 04:49:26;;;;;;;8.55;3.85;;;;;;;11.99;100.00;101649.41;5057891;28;20068;-82
2022/05/02 04:51:53;;;;;;;8.93;3.65;;;;;;;12.23;100.00;101638.19;5071486;28;20048;-82
2022/05/02 04:54:20;;;;;;;10.73;4.40;;;;;;;12.25;100.00;101643.41;5070101;28;20054;-82
2022/05/02 04:56:46;;;;;;;8.93;3.88;;;;;;;11.61;100.00;101633.81;5070819;28;20052;-82
2022/05/02 04:59:13;;;;;;;10.25;4.20;;;;;;;11.72;100.00;101644.00;5072051;28;20051;-82
2022/05/02 05:01:40;;;;;;;9.38;3.92;;;;;;;11.98;100.00;101648.56;5070898;28;20055;-82
2022/05/02 05:04:07;;;;;;;10.98;3.80;;;;;;;11.86;100.00;101612.13;5070344;28;20062;-82
2022/05/02 05:06:34;;;;;;;9.15;3.53;;;;;;;12.44;100.00;101654.22;5071272;28;20062;-81
2022/05/02 05:09:01;;;;;;;11.57;4.47;;;;;;;11.87;100.00;101654.09;5069934;28;20044;-82
2022/05/02 05:11:34;;;;;;;9.77;4.35;;;;;;;11.84;100.00;101661.19;5070036;28;20473;-82
2022/05/02 05:17:51;;;;;;;12.50;4.65;;;;;;;11.55;100.00;101658.44;5018264;28;20050;-81
2022/05/02 05:20:50;;;;;;;11.43;4.88;;;;;;;11.69;100.00;101660.72;5060755;28;20051;-81
2022/05/02 05:23:40;;;;;;;11.05;5.15;;;;;;;11.64;100.00;101662.59;5052869;28;20047;-82
2022/05/02 05:26:15;;;;;;;11.27;4.68;;;;;;;11.66;100.00;101662.56;5066466;28;20066;-82
2022/05/02 05:29:21;;;;;;;9.73;3.58;;;;;;;11.84;100.00;101666.44;5059366;28;20380;-82
2022/05/02 05:32:26;;;;;;;10.68;4.38;;;;;;;11.87;100.00;101659.31;5051227;28;20055;-83
2022/05/02 05:35:05;;;;;;;13.00;5.32;;;;;;;11.43;100.00;101658.78;5061115;28;20081;-82
2022/05/02 05:37:41;;;;;;;17.20;5.05;;;;;;;11.78;100.00;101672.72;5060920;28;20486;-82
2022/05/02 05:40:37;;;;;;;10.10;4.35;;;;;;;11.78;100.00;101665.69;5063370;28;20075;-83
2022/05/02 05:43:29;;;;;;;10.55;4.07;;;;;;;12.15;100.00;101669.06;5062650;28;20048;-83
2022/05/02 05:46:14;;;;;;;11.07;4.85;;;;;;;12.09;100.00;101675.38;5065554;28;20056;-82
2022/05/02 05:49:01;;;;;;;9.95;4.20;;;;;;;11.93;100.00;101672.31;5069043;28;20525;-81
2022/05/02 05:51:40;;;;;;;11.27;4.80;;;;;;;12.02;100.00;101675.56;5060928;28;20059;-82
2022/05/02 05:54:44;;;;;;;14.93;5.20;;;;;;;12.01;100.00;101677.34;5096341;28;20048;-82
2022/05/02 05:57:57;;;;;;;13.13;4.68;;;;;;;11.78;100.00;101649.94;5067432;28;20057;-81
2022/05/02 06:00:27;;;;;;;11.82;5.20;;;;;;;11.67;100.00;101677.38;5057210;28;20122;-81
2022/05/02 06:03:12;;;;;;;11.30;5.50;;;;;;;11.87;100.00;101675.06;5064221;28;20116;-82
2022/05/02 06:05:43;;;;;;;13.23;4.90;;;;;;;12.07;100.00;101674.53;5062566;28;20081;-82
2022/05/02 06:08:18;;;;;;;10.63;4.47;;;;;;;11.90;100.00;101676.78;5063336;28;20045;-82
2022/05/02 06:10:46;;;;;;;9.48;4.28;;;;;;;12.24;100.00;101671.44;5062632;28;20048;-82
2022/05/02 06:13:15;;;;;;;9.13;4.05;;;;;;;12.57;100.00;101684.47;5063380;28;20052;-81
2022/05/02 06:18:50;;;;;;;12.27;4.30;;;;;;;12.20;100.00;101689.94;5067908;28;20052;-82
2022/05/02 06:21:22;;;;;;;9.95;3.80;;;;;;;12.25;100.00;101681.03;5067821;28;20052;-81
2022/05/02 06:23:51;;;;;;;9.50;4.10;;;;;;;12.13;100.00;101686.66;5060879;28;20052;-82
2022/05/02 06:26:22;;;;;;;12.00;4.50;;;;;;;12.06;100.00;101679.84;5066318;28;20433;-82
2022/05/02 06:28:50;;;;;;;14.20;4.75;;;;;;;12.15;100.00;101690.94;5066367;28;20143;-82
2022/05/02 06:31:26;;;;;;;11.82;4.70;;;;;;;12.54;100.00;101689.78;5065832;28;20402;-82
2022/05/02 06:33:56;;;;;;;9.68;3.95;;;;;;;12.71;100.00;101684.00;5065312;28;20153;-82
2022/05/02 06:36:50;;;;;;;11.70;4.63;;;;;;;12.30;100.00;101702.75;5064476;28;20056;-82
2022/05/02 06:39:23;;;;;;;12.45;4.13;;;;;;;12.39;100.00;101703.38;5067447;28;20049;-82
2022/05/02 06:41:49;;;;;;;11.38;4.32;;;;;;;12.01;100.00;101706.22;5065036;28;20056;-82
2022/05/02 06:44:25;;;;;;;8.57;3.40;;;;;;;12.16;100.00;101707.53;5062777;28;20097;-82
2022/05/02 06:47:21;;;;;;;7.72;3.00;;;;;;;12.61;100.00;101696.59;5066829;28;20059;-82
2022/05/02 06:49:52;;;;;;;10.85;3.58;;;;;;;12.42;100.00;101696.28;5064614;28;20044;-83
2022/05/02 06:52:24;;;;;;;8.90;4.05;;;;;;;12.32;100.00;101711.47;5065377;28;20404;-83
2022/05/02 06:55:03;;;;;;;11.47;3.90;;;;;;;12.73;100.00;101704.09;5066443;28;20045;-83
2022/05/02 06:57:39;;;;;;;9.50;4.13;;;;;;;12.51;100.00;101717.00;5063301;28;20068;-83
2022/05/02 07:00:07;;;;;;;11.63;4.78;;;;;;;12.03;100.00;101708.81;5062425;28;20048;-83
2022/05/02 07:03:11;;;;;;;12.50;5.03;;;;;;;12.52;100.00;101716.09;5061806;28;20052;-83
2022/05/02 07:06:09;;;;;;;6.95;2.83;;;;;;;12.42;100.00;101719.06;5066393;28;20478;-84
2022/05/02 07:09:04;;;;;;;11.55;4.22;;;;;;;11.91;100.00;101723.13;5066159;28;20669;-83
2022/05/02 07:11:53;;;;;;;10.73;3.88;;;;;;;11.92;100.00;101727.47;5064404;28;20052;-84
2022/05/02 07:14:29;;;;;;;10.75;3.85;;;;;;;12.04;100.00;101714.00;5064397;28;20482;-84
2022/05/02 07:17:05;;;;;;;9.10;3.53;;;;;;;12.18;100.00;101720.63;5064375;28;20421;-84
2022/05/02 07:19:58;;;;;;;11.52;3.85;;;;;;;12.20;100.00;101708.31;5062189;28;20044;-83
2022/05/02 07:22:34;;;;;;;10.90;4.22;;;;;;;11.93;100.00;101729.19;5064776;28;20387;-84
2022/05/02 07:25:08;;;;;;;10.13;4.20;;;;;;;12.34;100.00;101738.53;5064436;28;20044;-84
2022/05/02 07:28:09;;;;;;;8.50;3.53;;;;;;;12.31;100.00;101729.88;5062748;28;20049;-83
2022/05/02 07:30:36;;;;;;;12.23;4.28;;;;;;;11.90;100.00;101732.75;5066063;28;20072;-84
2022/05/02 07:33:03;;;;;;;9.90;3.70;;;;;;;12.20;100.00;101738.06;5062346;28;20072;-84
2022/05/02 07:35:31;;;;;;;9.65;3.10;;;;;;;12.32;100.00;101742.09;5064139;28;20559;-83
2022/05/02 07:37:58;;;;;;;8.68;3.30;;;;;;;12.34;100.00;101742.91;5063223;28;20047;-83
2022/05/02 07:40:25;;;;;;;9.32;3.70;;;;;;;12.26;100.00;101747.53;5063383;28;20920;-84
2022/05/02 07:42:55;;;;;;;12.35;3.67;;;;;;;12.10;100.00;101729.56;5061018;28;20091;-84
2022/05/02 07:45:27;;;;;;;8.75;2.83;;;;;;;12.41;100.00;101746.22;5061721;28;20051;-84
2022/05/02 07:47:58;;;;;;;9.73;4.30;;;;;;;12.20;100.00;101727.56;5061032;28;20479;-84
2022/05/02 07:50:26;;;;;;;12.48;3.45;;;;;;;12.40;100.00;101770.78;5062651;28;20282;-84
2022/05/02 07:52:55;;;;;;;10.95;4.18;;;;;;;11.69;100.00;101722.81;5061361;28;20502;-83
2022/05/02 07:55:22;;;;;;;10.43;3.85;;;;;;;11.59;100.00;101727.44;5063473;28;20136;-83
2022/05/02 07:57:51;;;;;;;9.40;3.70;;;;;;;12.15;100.00;101767.06;5062091;28;20048;-84
2022/05/02 08:00:18;;;;;;;9.88;3.90;;;;;;;12.23;100.00;101766.00;5066304;28;20050;-83
2022/05/02 08:02:46;;;;;;;13.52;4.35;;;;;;;12.21;100.00;101755.53;5064062;28;20048;-83
2022/05/02 08:05:20;;;;;;;9.75;3.80;;;;;;;12.08;100.00;101760.25;5063884;28;20899;-82
2022/05/02 08:07:47;;;;;;;9.60;4.18;;;;;;;12.33;100.00;101757.81;5065360;28;20048;-83
2022/05/02 08:10:43;;;;;;;9.50;3.95;;;;;;;12.34;100.00;101763.91;5091947;28;20641;-83
2022/05/02 08:13:12;;;;;;;11.32;4.25;;;;;;;12.06;100.00;101784.84;5061665;28;20052;-83
2022/05/02 08:16:05;;;;;;;9.43;3.60;;;;;;;12.51;100.00;101776.56;5058774;28;20071;-83
2022/05/02 08:18:41;;;;;;;11.57;3.55;;;;;;;12.53;100.00;101785.25;5058765;28;20277;-83
2022/05/02 08:21:15;;;;;;;10.63;3.78;;;;;;;12.36;100.00;101717.47;5055957;28;20445;-83
2022/05/02 08:27:25;;;;;;;7.80;2.90;;;;;;;12.35;100.00;101794.53;5063013;28;20150;-83
2022/05/02 08:30:09;;;;;;;11.88;3.60;;;;;;;12.30;100.00;101792.03;5061393;28;20051;-83
2022/05/02 08:32:38;;;;;;;;;;;;;;;12.72;100.00;101791.69;5062177;28;20088;-83
2022/05/02 08:35:14;;;;;;;6.60;2.55;;;;;;;12.87;100.00;101793.03;5065312;28;19927;-83
2022/05/02 08:37:53;;;;;;;10.77;3.80;;;;;;;12.52;100.00;101799.31;5060215;28;20056;-82
2022/05/02 08:40:27;;;;;;;8.25;3.03;;;;;;;12.82;100.00;101804.56;5061771;28;20049;-82
2022/05/02 08:43:19;;;;;;;9.38;2.88;;;;;;;12.67;100.00;101806.72;5063705;28;20059;-83
2022/05/02 08:46:05;;;;;;;10.63;3.35;;;;;;;12.17;100.00;101768.81;5063232;28;20049;-82
2022/05/02 08:52:20;;;;;;;8.52;3.35;;;;;;;12.92;100.00;101813.88;5061806;28;20501;-83
2022/05/02 08:55:32;;;;;;;7.45;2.70;;;;;;;13.05;100.00;101812.63;5059321;28;20048;-83
2022/05/02 08:57:58;;;;;;;9.48;3.03;;;;;;;13.03;100.00;101817.06;5066445;28;20569;-83
2022/05/02 09:00:49;;;;;;;11.48;3.28;;;;;;;12.72;100.00;101814.50;5068606;28;20040;-83
2022/05/02 09:04:00;;;;;;;11.77;3.25;;;;;;;12.65;100.00;101816.44;5063791;28;20045;-82
2022/05/02 09:06:42;;;;;;;14.27;3.97;;;;;;;12.45;100.00;101819.63;5039069;28;20052;-83
2022/05/02 09:09:24;;;;;;;11.70;3.53;;;;;;;12.05;100.00;101785.75;5062118;28;20048;-83
2022/05/02 09:12:22;;;;;;;10.20;3.90;;;;;;;12.04;100.00;101821.63;5061824;28;20051;-84
2022/05/02 09:15:12;;;;;;;11.52;3.28;;;;;;;12.10;100.00;101828.47;5065002;28;20052;-84
2022/05/02 09:18:10;;;;;;;7.47;2.90;;;;;;;12.23;100.00;101829.00;5065386;28;20047;-84
2022/05/02 09:21:00;;;;;;;9.15;3.20;;;;;;;12.21;100.00;101825.56;5074335;28;20087;-86
2022/05/02 09:23:42;;;;;;;9.25;3.30;;;;;;;12.05;100.00;101830.38;5078121;28;20053;-86
2022/05/02 09:26:53;;;;;;;8.88;3.33;;;;;;;12.22;100.00;101827.31;5068989;28;20055;-85
2022/05/02 09:29:48;;;;;;;10.15;2.97;;;;;;;12.44;100.00;101824.94;5049946;28;20048;-85
2022/05/02 09:32:46;;;;;;;7.53;2.60;;;;;;;12.72;100.00;101819.75;5072124;28;20053;-85
2022/05/02 09:35:25;;;;;;;8.35;3.10;;;;;;;13.13;100.00;101793.13;5042102;28;20403;-86
2022/05/02 09:38:10;;;;;;;7.97;2.75;;;;;;;13.42;100.00;101815.88;5073216;28;20075;-83
2022/05/02 09:40:41;;;;;;;8.73;2.90;;;;;;;12.67;100.00;101806.72;5073509;28;20052;-84
2022/05/02 09:49:33;;;;;;;8.77;2.90;;;;;;;12.65;100.00;101789.31;5075301;28;20048;-84
2022/05/02 09:50:17;;;;;;;8.55;2.50;;;;;;;12.71;100.00;101760.22;5065749;28;20046;-84
2022/05/02 09:52:53;;;;;;;9.52;2.65;;;;;;;12.89;100.00;101795.56;5016595;28;20059;-84
2022/05/02 09:58:37;;;;;;;8.10;2.90;;;;;;;13.32;96.10;101825.00;5075317;28;20494;-84
2022/05/02 10:01:13;;;;;;;9.50;3.20;;;;;;;13.40;96.01;101825.59;5073517;28;20063;-84
2022/05/02 10:03:59;;;;;;;11.75;2.70;;;;;;;13.47;95.51;101806.94;5054229;28;20044;-85
2022/05/02 10:06:46;;;;;;;9.45;3.20;;;;;;;13.79;94.42;101820.81;5055046;28;20132;-83
2022/05/02 10:09:35;;;;;;;13.05;3.10;;;;;;;13.45;95.35;101813.16;5070485;28;20402;-84
2022/05/02 10:12:31;;;;;;;8.52;2.65;;;;;;;13.94;91.57;101824.69;5069142;28;20059;-84
2022/05/02 10:15:13;;;;;;;7.03;2.78;;;;;;;13.78;92.22;101828.75;5067650;28;20045;-84
2022/05/02 10:17:58;;;;;;;8.75;2.85;;;;;;;13.51;92.10;101831.38;5069585;28;20489;-82
2022/05/02 10:20:37;;;;;;;10.80;2.80;;;;;;;13.43;93.69;101833.41;5069893;28;20440;-83
2022/05/02 10:23:30;;;;;;;5.78;2.25;;;;;;;13.85;93.13;101831.13;5072392;28;20048;-85
2022/05/02 10:26:06;;;;;;;7.50;2.80;;;;;;;13.78;91.04;101826.13;5073062;28;20467;-85
2022/05/02 10:28:33;;;;;;;10.57;2.97;;;;;;;13.82;90.83;101828.59;5071374;28;20076;-83
2022/05/02 10:31:13;;;;;;;7.35;2.35;;;;;;;14.09;88.92;101818.00;5072961;28;20051;-83
2022/05/02 10:33:45;;;;;;;7.95;2.58;;;;;;;13.74;89.20;101846.44;5072904;28;20044;-83
2022/05/02 10:36:13;;;;;;;8.77;2.50;;;;;;;13.66;89.49;101843.19;5073349;28;20405;-83
2022/05/02 10:38:55;;;;;;;8.63;2.20;;;;;;;13.90;91.18;101838.88;5073112;28;20075;-83
2022/05/02 10:41:27;;;;;;;7.03;2.35;;;;;;;13.65;90.86;101838.81;5064166;28;20131;-83
2022/05/02 10:44:01;;;;;;;9.13;2.88;;;;;;;13.75;93.08;101828.84;5072156;28;20656;-83
2022/05/02 10:46:33;;;;;;;8.27;2.83;;;;;;;13.67;94.99;101853.66;5072492;28;20048;-83
2022/05/02 10:49:05;;;;;;;6.65;2.35;;;;;;;13.31;97.27;101829.38;5072360;28;20040;-83
2022/05/02 10:51:32;;;;;;;12.13;2.78;;;;;;;13.52;99.05;101840.13;5071228;28;20059;-83
2022/05/02 10:54:13;;;;;;;7.10;2.10;;;;;;;13.46;100.00;101826.25;5072745;28;20048;-83
2022/05/02 10:56:41;;;;;;;9.02;2.20;;;;;;;13.02;100.00;101836.38;5071835;28;20045;-83
2022/05/02 10:59:14;;;;;;;7.85;2.22;;;;;;;12.83;100.00;101812.41;5071342;28;20051;-83
2022/05/02 11:02:02;;;;;;;9.23;2.73;;;;;;;13.24;100.00;101841.84;5071937;28;20084;-83
2022/05/02 11:05:04;;;;;;;10.48;2.60;;;;;;;12.92;100.00;101848.06;5065253;28;20463;-83
2022/05/02 11:08:09;;;;;;;8.60;2.72;;;;;;;13.30;100.00;101849.53;5072504;28;20099;-83
2022/05/02 11:11:03;;;;;;;8.80;2.45;;;;;;;13.52;100.00;101845.41;5072401;28;20084;-83
2022/05/02 11:13:48;;;;;;;8.82;2.05;;;;;;;13.20;96.33;101834.09;5068162;28;20066;-83
2022/05/02 11:16:38;;;;;;;6.63;2.65;;;;;;;13.37;92.72;101854.63;5073022;28;20048;-83
2022/05/02 11:22:39;;;;;;;5.88;1.90;;;;;;;13.51;97.03;101844.53;5072496;28;20058;-83
2022/05/02 11:25:24;;;;;;;11.30;2.28;;;;;;;13.63;95.08;101838.88;5072760;28;20059;-83
2022/05/02 11:28:13;;;;;;;7.25;2.38;;;;;;;13.85;94.68;101849.53;5067057;28;20497;-83
2022/05/02 11:30:48;;;;;;;11.65;2.03;;;;;;;13.74;89.60;101854.31;5065237;28;20498;-83
2022/05/02 11:33:36;;;;;;;6.60;1.73;;;;;;;13.30;93.72;101862.69;5071835;28;20060;-83
2022/05/02 11:36:06;;;;;;;6.88;2.03;;;;;;;13.23;92.94;101857.66;5058946;28;20044;-83
2022/05/02 11:38:55;;;;;;;6.97;2.10;;;;;;;13.68;89.33;101854.50;5065120;28;20044;-83
2022/05/02 11:41:23;;;;;;;7.63;1.98;;;;;;;13.29;91.20;101844.31;5070265;28;20130;-83
2022/05/02 11:44:11;;;;;;;8.05;2.63;;;;;;;13.75;87.90;101855.16;5071148;28;20132;-83
2022/05/02 11:47:14;;;;;;;7.57;2.00;;;;;;;13.52;87.96;101862.03;5072224;28;20052;-83
2022/05/02 11:49:43;;;;;;;9.18;2.40;;;;;;;13.24;88.37;101865.53;5035531;28;20502;-83
2022/05/02 11:52:14;;;;;;;4.28;1.67;;;;;;;13.37;87.93;101873.03;5070035;28;20052;-83
2022/05/02 11:54:49;;;;;;;5.93;1.73;;;;;;;13.75;86.09;101863.91;5063821;28;20409;-83
2022/05/02 11:57:28;;;;;;;7.90;1.90;;;;;;;13.40;86.59;101836.13;5071912;28;20048;-83
2022/05/02 12:00:02;;;;;;;6.93;2.13;;;;;;;13.94;83.42;101868.59;5071693;28;20040;-83
2022/05/02 12:02:38;;;;;;;7.40;2.13;;;;;;;14.21;82.23;101867.63;5063933;28;20048;-83
2022/05/02 12:05:17;;;;;;;6.55;1.60;;;;;;;14.44;80.43;101865.97;5072261;28;20076;-83
2022/05/02 12:07:58;;;;;;;7.78;1.90;;;;;;;13.73;80.77;101828.91;5061482;28;20084;-83
2022/05/02 12:10:43;;;;;;;5.30;1.55;;;;;;;14.46;81.15;101866.75;5093995;28;20051;-82
2022/05/02 12:13:12;;;;;;;6.25;1.60;;;;;;;14.32;78.30;101864.59;5072197;28;20066;-82
2022/05/02 12:16:03;;;;;;;5.05;1.65;;;;;;;13.58;79.89;101874.13;5071089;28;21336;-82
2022/05/02 12:18:42;;;;;;;12.88;1.90;;;;;;;13.66;80.22;101870.34;5062833;28;20045;-82